Time;durP1;ratioP1;P1;durP2;ratioP2;P2;SDS_P1;SDS_P2;PMS_P1;PMS_P2;Temp;Humidity;BMP_temperature;BMP_pressure;BME280_temperature;BME280_humidity;BME280_pressure;Samples;Min_cycle;Max_cycle;Signal;HPM_P1;HPM_P2
2023/08/11 00:01:55;;;;;;;5.22;2.33;;;20.20;53.20;;;;;;5061826;28;20048;-92
2023/08/11 00:04:22;;;;;;;4.60;2.53;;;20.20;53.30;;;;;;5055220;28;20067;-92
2023/08/11 00:06:50;;;;;;;3.33;2.10;;;20.20;53.30;;;;;;5058342;28;20523;-92
2023/08/11 00:09:18;;;;;;;4.88;2.40;;;20.20;53.40;;;;;;5061825;28;20055;-89
2023/08/11 00:11:46;;;;;;;5.05;2.20;;;20.10;53.40;;;;;;5061352;28;20049;-90
2023/08/11 00:14:13;;;;;;;4.60;2.40;;;20.10;53.40;;;;;;5062661;28;20396;-91
2023/08/11 00:16:40;;;;;;;4.88;2.45;;;20.10;53.50;;;;;;5061456;28;20420;-90
2023/08/11 00:19:08;;;;;;;5.00;2.40;;;20.10;53.60;;;;;;5059300;28;20454;-91
2023/08/11 00:21:35;;;;;;;3.85;2.38;;;20.10;53.70;;;;;;5061527;28;20052;-90
2023/08/11 00:24:02;;;;;;;4.63;2.47;;;20.10;53.70;;;;;;5061789;28;20052;-91
2023/08/11 00:26:31;;;;;;;4.93;2.55;;;20.00;53.70;;;;;;5058415;28;20063;-91
2023/08/11 00:28:58;;;;;;;4.95;2.33;;;20.00;53.70;;;;;;5061153;28;20056;-92
2023/08/11 00:31:25;;;;;;;5.88;2.50;;;20.00;53.70;;;;;;5061009;28;20492;-88
2023/08/11 00:33:53;;;;;;;6.32;2.45;;;20.00;53.80;;;;;;5062106;28;20060;-85
2023/08/11 00:36:20;;;;;;;4.78;2.33;;;20.00;53.90;;;;;;5056686;28;20079;-88
2023/08/11 00:38:47;;;;;;;3.47;2.60;;;19.90;54.40;;;;;;5060237;28;20055;-85
2023/08/11 00:41:16;;;;;;;3.78;2.33;;;19.90;54.00;;;;;;5060748;28;20060;-90
2023/08/11 00:43:44;;;;;;;3.33;2.20;;;19.90;54.00;;;;;;5061168;28;20083;-92
2023/08/11 00:46:14;;;;;;;6.75;2.40;;;19.90;54.10;;;;;;5060532;28;20048;-85
2023/08/11 00:48:43;;;;;;;5.90;2.45;;;19.90;54.20;;;;;;5060551;28;20970;-84
2023/08/11 00:51:13;;;;;;;3.33;2.20;;;19.90;54.30;;;;;;5061541;28;20079;-84
2023/08/11 00:53:40;;;;;;;3.97;2.47;;;19.90;54.30;;;;;;5057534;28;20063;-84
2023/08/11 00:56:08;;;;;;;4.15;2.33;;;19.80;54.30;;;;;;5066256;28;20060;-84
2023/08/11 00:58:36;;;;;;;8.35;2.53;;;19.80;54.40;;;;;;5059452;28;20048;-84
2023/08/11 01:01:05;;;;;;;4.40;2.45;;;19.80;54.40;;;;;;5064061;23;20396;-59
2023/08/11 01:03:32;;;;;;;3.65;2.40;;;19.80;54.50;;;;;;5005094;28;20068;-60
2023/08/11 01:06:07;;;;;;;4.28;2.20;;;19.80;54.50;;;;;;5004780;28;20053;-59
2023/08/11 01:08:40;;;;;;;3.95;2.45;;;19.70;54.60;;;;;;5003309;28;20060;-57
2023/08/11 01:11:17;;;;;;;3.70;2.35;;;19.70;54.60;;;;;;5004018;28;20424;-58
2023/08/11 01:13:52;;;;;;;3.75;2.17;;;19.70;54.70;;;;;;5003699;28;20054;-59
2023/08/11 01:16:22;;;;;;;9.50;2.55;;;19.70;54.70;;;;;;5003284;28;20050;-60
2023/08/11 01:18:50;;;;;;;5.28;2.33;;;19.70;54.70;;;;;;5003808;28;20055;-57
2023/08/11 01:21:19;;;;;;;3.75;2.38;;;19.70;54.70;;;;;;5005191;28;20057;-59
2023/08/11 01:23:48;;;;;;;6.45;2.65;;;19.60;54.80;;;;;;5002600;28;20056;-54
2023/08/11 01:26:16;;;;;;;6.90;2.50;;;19.60;54.80;;;;;;5003762;28;20053;-59
2023/08/11 01:28:43;;;;;;;5.05;2.22;;;19.60;54.80;;;;;;5004234;28;20064;-59
2023/08/11 01:31:10;;;;;;;4.10;2.20;;;19.60;54.90;;;;;;5003908;28;20081;-56
2023/08/11 01:33:38;;;;;;;4.45;2.20;;;19.60;54.90;;;;;;5004540;28;20061;-59
2023/08/11 01:36:08;;;;;;;3.03;2.33;;;19.60;54.90;;;;;;5003642;28;20046;-59
2023/08/11 01:38:35;;;;;;;5.18;2.03;;;19.50;54.90;;;;;;5004323;28;20531;-59
2023/08/11 01:41:04;;;;;;;5.38;2.30;;;19.50;55.00;;;;;;5002496;28;20054;-58
2023/08/11 01:43:31;;;;;;;2.60;1.75;;;19.50;55.00;;;;;;5002753;28;20505;-59
2023/08/11 01:45:59;;;;;;;5.13;2.30;;;19.50;55.10;;;;;;5003453;28;20057;-59
2023/08/11 01:48:28;;;;;;;4.32;2.58;;;19.50;55.10;;;;;;5005348;28;20049;-59
2023/08/11 01:50:55;;;;;;;3.42;2.25;;;19.50;55.20;;;;;;5004052;28;20045;-59
2023/08/11 01:53:23;;;;;;;4.82;2.42;;;19.50;55.20;;;;;;5003726;28;20160;-59
2023/08/11 01:55:51;;;;;;;5.30;1.85;;;19.40;55.20;;;;;;5004993;28;20504;-59
2023/08/11 02:01:42;;;;;;;4.60;2.30;;;19.40;55.30;;;;;;5003707;28;20057;-57
2023/08/11 02:04:09;;;;;;;4.57;2.30;;;19.40;55.20;;;;;;5003284;28;20056;-59
2023/08/11 02:06:39;;;;;;;5.05;2.60;;;19.40;55.20;;;;;;5003719;28;20536;-58
2023/08/11 02:09:08;;;;;;;5.78;2.40;;;19.40;55.30;;;;;;5003195;28;20049;-59
2023/08/11 02:11:37;;;;;;;11.30;2.33;;;19.30;55.20;;;;;;5003868;28;20061;-59
2023/08/11 02:14:04;;;;;;;4.35;2.47;;;19.30;55.20;;;;;;5003832;28;20242;-59
2023/08/11 02:16:32;;;;;;;5.07;1.95;;;19.30;55.20;;;;;;5004180;28;20065;-59
2023/08/11 02:19:00;;;;;;;4.32;2.45;;;19.30;55.20;;;;;;5002997;28;20050;-58
2023/08/11 02:21:29;;;;;;;5.57;2.10;;;19.30;55.30;;;;;;5002509;28;20445;-59
2023/08/11 02:23:56;;;;;;;4.30;2.40;;;19.30;55.30;;;;;;5001449;28;20061;-59
2023/08/11 02:26:23;;;;;;;3.97;2.70;;;19.30;55.30;;;;;;5001347;28;20068;-56
2023/08/11 02:28:50;;;;;;;6.13;2.30;;;19.20;55.30;;;;;;5003124;28;20061;-59
2023/08/11 02:31:18;;;;;;;3.72;2.05;;;19.20;55.30;;;;;;5002063;28;20053;-57
2023/08/11 02:33:45;;;;;;;4.18;2.28;;;19.20;55.30;;;;;;5002873;28;20062;-58
2023/08/11 02:36:14;;;;;;;3.83;2.10;;;19.20;55.30;;;;;;5003425;28;20576;-58
2023/08/11 02:38:42;;;;;;;3.00;2.08;;;19.20;55.40;;;;;;5002447;28;20053;-60
2023/08/11 02:41:09;;;;;;;4.57;2.35;;;19.20;55.40;;;;;;5002742;28;20493;-58
2023/08/11 02:43:36;;;;;;;4.40;2.45;;;19.20;55.40;;;;;;5002960;28;20064;-59
2023/08/11 02:46:05;;;;;;;3.50;2.47;;;19.20;55.50;;;;;;5002282;28;20067;-59
2023/08/11 02:48:34;;;;;;;4.78;2.42;;;19.20;55.50;;;;;;5003469;28;20544;-59
2023/08/11 02:51:02;;;;;;;4.00;2.30;;;19.20;55.50;;;;;;5001953;28;20046;-59
2023/08/11 02:53:31;;;;;;;3.35;2.30;;;19.20;55.50;;;;;;5001510;28;20076;-56
2023/08/11 02:56:00;;;;;;;4.05;2.30;;;19.10;55.40;;;;;;5001172;28;20408;-55
2023/08/11 02:58:28;;;;;;;3.42;1.73;;;19.10;55.40;;;;;;5000980;28;20054;-59
2023/08/11 03:00:56;;;;;;;4.38;2.13;;;19.10;55.50;;;;;;5001510;28;20045;-59
2023/08/11 03:03:23;;;;;;;6.35;2.08;;;19.10;55.40;;;;;;5001830;28;20524;-59
2023/08/11 03:05:50;;;;;;;4.55;2.50;;;19.10;55.50;;;;;;5002542;28;20392;-58
2023/08/11 03:08:17;;;;;;;5.03;2.10;;;19.10;55.50;;;;;;5002010;28;20057;-59
2023/08/11 03:10:46;;;;;;;4.18;2.38;;;19.10;55.50;;;;;;5002870;28;20046;-60
2023/08/11 03:13:14;;;;;;;3.88;2.13;;;19.10;55.50;;;;;;5000732;28;20528;-59
2023/08/11 03:15:41;;;;;;;4.28;1.88;;;19.10;55.40;;;;;;5002263;28;20413;-60
2023/08/11 03:18:08;;;;;;;4.38;2.53;;;19.10;55.40;;;;;;5002153;28;20049;-57
2023/08/11 03:20:36;;;;;;;6.32;2.28;;;19.10;55.40;;;;;;5004078;28;20480;-59
2023/08/11 03:23:05;;;;;;;7.82;2.67;;;19.10;55.40;;;;;;5002679;28;20444;-58
2023/08/11 03:25:32;;;;;;;5.05;2.08;;;19.10;55.40;;;;;;5001826;28;20084;-59
2023/08/11 03:28:01;;;;;;;5.20;2.45;;;19.10;55.30;;;;;;5001160;28;20046;-59
2023/08/11 03:30:28;;;;;;;3.92;2.13;;;19.10;55.40;;;;;;5002856;28;20057;-59
2023/08/11 03:32:55;;;;;;;3.85;2.03;;;19.00;55.30;;;;;;5003821;28;20438;-59
2023/08/11 03:35:22;;;;;;;5.38;2.00;;;19.00;55.30;;;;;;5003591;28;20053;-59
2023/08/11 03:37:50;;;;;;;3.55;2.03;;;19.00;55.30;;;;;;5004822;28;20054;-59
2023/08/11 03:40:17;;;;;;;3.58;1.90;;;19.10;55.30;;;;;;5007308;28;20064;-59
2023/08/11 03:42:44;;;;;;;4.47;1.88;;;19.00;55.20;;;;;;5005187;28;20061;-59
2023/08/11 03:45:14;;;;;;;4.95;2.10;;;19.00;55.10;;;;;;5004975;28;20555;-58
2023/08/11 03:47:43;;;;;;;3.50;2.20;;;19.00;55.20;;;;;;5005636;28;20053;-59
2023/08/11 03:50:11;;;;;;;5.43;2.15;;;19.00;55.10;;;;;;5005659;28;20050;-59
2023/08/11 03:52:39;;;;;;;3.88;1.88;;;19.00;55.20;;;;;;5006289;28;20513;-59
2023/08/11 03:55:09;;;;;;;2.95;1.85;;;19.00;55.20;;;;;;5004473;28;20498;-59
2023/08/11 03:57:37;;;;;;;2.45;1.77;;;19.00;55.20;;;;;;5003605;28;20389;-59
2023/08/11 04:00:09;;;;;;;4.10;1.92;;;18.90;55.10;;;;;;5005505;28;20410;-58
2023/08/11 04:02:37;;;;;;;4.72;2.10;;;19.00;55.20;;;;;;5007118;28;20413;-59
2023/08/11 04:05:05;;;;;;;4.95;2.60;;;18.90;55.10;;;;;;5005090;28;20062;-59
2023/08/11 04:07:32;;;;;;;5.97;2.10;;;18.90;55.10;;;;;;5004700;28;20053;-57
2023/08/11 04:10:00;;;;;;;2.55;1.95;;;18.90;55.10;;;;;;5005932;28;20049;-58
2023/08/11 04:12:27;;;;;;;3.80;2.08;;;18.90;55.20;;;;;;5003180;28;20049;-59
2023/08/11 04:14:54;;;;;;;5.72;2.08;;;18.90;55.20;;;;;;5005019;28;20064;-59
2023/08/11 04:17:21;;;;;;;3.60;1.88;;;18.90;55.20;;;;;;4990230;28;20051;-58
2023/08/11 04:19:53;;;;;;;3.47;2.10;;;18.90;55.30;;;;;;5004381;28;20054;-59
2023/08/11 04:22:21;;;;;;;4.85;2.47;;;18.80;55.30;;;;;;5004966;28;20058;-59
2023/08/11 04:24:48;;;;;;;3.83;2.10;;;18.80;55.30;;;;;;5005440;28;20080;-59
2023/08/11 04:27:15;;;;;;;4.78;2.17;;;18.90;55.40;;;;;;4976864;28;20050;-59
2023/08/11 04:29:42;;;;;;;3.55;2.20;;;18.80;55.30;;;;;;5005634;28;20050;-59
2023/08/11 04:32:09;;;;;;;8.48;1.90;;;18.80;55.40;;;;;;5004311;28;20058;-59
2023/08/11 04:34:37;;;;;;;3.17;2.10;;;18.80;55.40;;;;;;5005833;28;20049;-47
2023/08/11 04:37:06;;;;;;;2.88;2.00;;;18.80;55.40;;;;;;5002707;28;20046;-50
2023/08/11 04:39:33;;;;;;;4.60;2.33;;;18.80;55.50;;;;;;5003038;28;20049;-48
2023/08/11 04:42:00;;;;;;;4.63;2.20;;;18.80;55.50;;;;;;5003211;28;20053;-48
2023/08/11 04:44:28;;;;;;;8.23;5.00;;;18.80;55.50;;;;;;5004580;28;20496;-48
2023/08/11 04:46:55;;;;;;;8.93;4.10;;;18.80;55.60;;;;;;5006846;28;20163;-47
2023/08/11 04:49:22;;;;;;;6.82;3.10;;;18.80;55.60;;;;;;5005324;28;20058;-46
2023/08/11 04:51:49;;;;;;;4.78;2.47;;;18.80;55.60;;;;;;5004342;28;20412;-50
2023/08/11 04:54:18;;;;;;;4.78;2.13;;;18.80;55.60;;;;;;5004323;28;20073;-50
2023/08/11 04:56:46;;;;;;;5.93;2.40;;;18.80;55.70;;;;;;4999920;28;20050;-48
2023/08/11 04:59:13;;;;;;;6.97;2.58;;;18.80;55.70;;;;;;5003601;28;20058;-50
2023/08/11 05:01:41;;;;;;;2.85;1.98;;;18.80;55.70;;;;;;5003337;28;20061;-50
2023/08/11 05:04:09;;;;;;;6.50;2.35;;;18.80;55.80;;;;;;5004172;28;20049;-55
2023/08/11 05:06:37;;;;;;;6.20;3.75;;;18.80;55.80;;;;;;5000884;28;20046;-49
2023/08/11 05:09:04;;;;;;;16.30;8.43;;;18.80;55.90;;;;;;5004327;28;20501;-49
2023/08/11 05:11:33;;;;;;;13.43;7.63;;;18.80;55.90;;;;;;5003189;28;20049;-50
2023/08/11 05:14:00;;;;;;;8.65;4.90;;;18.80;55.90;;;;;;5004022;28;20053;-49
2023/08/11 05:16:27;;;;;;;9.57;3.72;;;18.80;56.00;;;;;;5003959;28;20421;-47
2023/08/11 05:18:55;;;;;;;8.30;2.33;;;18.80;56.00;;;;;;4986082;28;20440;-50
2023/08/11 05:21:22;;;;;;;5.65;2.58;;;18.80;56.00;;;;;;5003983;28;20050;-47
2023/08/11 05:23:49;;;;;;;4.50;2.40;;;18.80;56.10;;;;;;5003745;28;20053;-55
2023/08/11 05:26:16;;;;;;;5.80;2.67;;;18.80;56.10;;;;;;5002371;28;20069;-51
2023/08/11 05:28:45;;;;;;;4.10;2.38;;;18.80;56.10;;;;;;5003301;28;20108;-48
2023/08/11 05:31:12;;;;;;;3.85;2.20;;;18.80;56.20;;;;;;5003092;28;20056;-48
2023/08/11 05:33:40;;;;;;;4.45;2.28;;;18.90;56.20;;;;;;5002985;28;20057;-48
2023/08/11 05:36:08;;;;;;;5.32;2.70;;;18.90;56.30;;;;;;5003093;28;20077;-48
2023/08/11 05:38:35;;;;;;;3.50;2.20;;;18.90;56.30;;;;;;5003308;28;20064;-50
2023/08/11 05:41:03;;;;;;;3.38;2.20;;;18.90;56.40;;;;;;5003294;28;20056;-49
2023/08/11 05:43:30;;;;;;;4.18;2.13;;;18.90;56.40;;;;;;5002817;28;20061;-52
2023/08/11 05:45:59;;;;;;;2.65;2.10;;;18.90;56.40;;;;;;5001889;28;20050;-47
2023/08/11 05:48:26;;;;;;;4.10;2.20;;;19.00;56.50;;;;;;5003840;28;20050;-47
2023/08/11 05:50:53;;;;;;;6.07;2.83;;;19.00;56.50;;;;;;5002319;28;20057;-47
2023/08/11 05:53:21;;;;;;;4.82;2.13;;;19.00;56.50;;;;;;5003623;28;20505;-48
2023/08/11 05:55:48;;;;;;;5.03;2.38;;;19.00;56.60;;;;;;5004232;28;20088;-50
2023/08/11 05:58:15;;;;;;;5.20;2.60;;;19.00;56.60;;;;;;5001706;28;20049;-51
2023/08/11 06:00:42;;;;;;;5.45;2.13;;;19.10;56.60;;;;;;5001584;28;20053;-47
2023/08/11 06:03:11;;;;;;;6.03;2.28;;;19.10;56.60;;;;;;5003272;28;20438;-51
2023/08/11 06:05:38;;;;;;;9.27;2.83;;;19.10;56.60;;;;;;5001405;28;20615;-49
2023/08/11 06:08:06;;;;;;;7.03;2.70;;;19.20;56.70;;;;;;5003340;28;20064;-47
2023/08/11 06:10:34;;;;;;;5.45;2.17;;;19.20;56.70;;;;;;5003303;28;20049;-48
2023/08/11 06:13:01;;;;;;;4.20;2.35;;;19.30;56.80;;;;;;5002729;28;20053;-53
2023/08/11 06:15:30;;;;;;;3.67;2.15;;;19.30;56.90;;;;;;5002815;28;20057;-53
2023/08/11 06:17:57;;;;;;;5.85;2.88;;;19.30;56.90;;;;;;5003635;28;20098;-53
2023/08/11 06:20:25;;;;;;;5.05;2.08;;;19.30;56.90;;;;;;5002337;28;20064;-49
2023/08/11 06:22:53;;;;;;;3.03;2.10;;;19.40;57.00;;;;;;5001328;28;20046;-49
2023/08/11 06:25:20;;;;;;;5.78;2.50;;;19.40;57.00;;;;;;5003056;28;20061;-51
2023/08/11 06:27:47;;;;;;;4.43;2.78;;;19.50;57.00;;;;;;5000260;28;20509;-49
2023/08/11 06:30:15;;;;;;;6.80;2.40;;;19.50;57.50;;;;;;5002426;28;20500;-50
2023/08/11 06:32:42;;;;;;;7.03;2.72;;;19.50;57.10;;;;;;5000654;28;20057;-48
2023/08/11 06:35:10;;;;;;;6.65;2.55;;;19.60;57.20;;;;;;5001482;28;20056;-47
2023/08/11 06:37:38;;;;;;;6.40;2.25;;;19.60;57.20;;;;;;5002603;28;20058;-46
2023/08/11 06:40:06;;;;;;;5.15;3.08;;;19.70;57.20;;;;;;5002104;28;20053;-53
2023/08/11 06:42:34;;;;;;;5.28;3.28;;;19.70;57.00;;;;;;5001706;28;20046;-50
2023/08/11 06:45:01;;;;;;;5.70;2.55;;;19.80;57.00;;;;;;5002339;28;20080;-54
2023/08/11 06:47:29;;;;;;;4.60;2.58;;;19.80;56.90;;;;;;5003302;28;20421;-49
2023/08/11 06:49:56;;;;;;;3.70;2.20;;;19.90;56.90;;;;;;5002615;28;20076;-51
2023/08/11 06:52:24;;;;;;;7.38;2.42;;;19.90;56.90;;;;;;5002302;28;20049;-51
2023/08/11 06:54:52;;;;;;;5.05;2.30;;;20.00;56.90;;;;;;5001713;28;20053;-55
2023/08/11 06:57:20;;;;;;;3.30;1.73;;;20.10;57.00;;;;;;5001404;28;20050;-51
2023/08/11 06:59:48;;;;;;;6.25;2.70;;;20.10;57.00;;;;;;5002862;28;20085;-51
2023/08/11 07:02:16;;;;;;;4.40;2.33;;;20.20;56.80;;;;;;5001482;28;20049;-49
2023/08/11 07:04:43;;;;;;;4.25;2.25;;;20.20;56.80;;;;;;5002410;28;20725;-50
2023/08/11 07:07:10;;;;;;;7.05;2.30;;;20.30;56.90;;;;;;5001610;28;20512;-47
2023/08/11 07:09:37;;;;;;;3.83;2.20;;;20.30;56.90;;;;;;5000589;28;20121;-48
2023/08/11 07:12:06;;;;;;;6.70;2.47;;;20.40;56.90;;;;;;5004362;28;20045;-53
2023/08/11 07:14:34;;;;;;;6.22;2.30;;;20.40;56.80;;;;;;5005709;28;20624;-47
2023/08/11 07:17:01;;;;;;;3.60;2.30;;;20.50;56.80;;;;;;5006980;28;20050;-50
2023/08/11 07:19:28;;;;;;;5.10;2.17;;;20.60;56.80;;;;;;5006942;28;20068;-50
2023/08/11 07:21:55;;;;;;;6.18;2.80;;;20.70;56.80;;;;;;5005625;28;20056;-47
2023/08/11 07:24:23;;;;;;;4.85;2.33;;;20.70;56.80;;;;;;5005603;28;20490;-49
2023/08/11 07:26:50;;;;;;;3.17;2.00;;;20.80;56.80;;;;;;5006070;28;20413;-49
2023/08/11 07:29:19;;;;;;;4.53;2.08;;;20.80;56.60;;;;;;5005690;28;20054;-49
2023/08/11 07:31:46;;;;;;;5.82;2.28;;;20.90;56.60;;;;;;5004004;28;20164;-50
2023/08/11 07:34:13;;;;;;;3.83;2.25;;;21.00;56.50;;;;;;5005448;28;20049;-49
2023/08/11 07:36:41;;;;;;;4.75;2.35;;;21.10;56.40;;;;;;5005893;28;20053;-50
2023/08/11 07:39:09;;;;;;;7.22;2.33;;;21.10;56.30;;;;;;5004802;28;20054;-49
2023/08/11 07:41:37;;;;;;;4.47;2.45;;;21.20;56.20;;;;;;5004276;28;20054;-56
2023/08/11 07:44:05;;;;;;;5.07;2.53;;;21.20;56.10;;;;;;5005259;28;20061;-47
2023/08/11 07:46:33;;;;;;;6.03;2.40;;;21.30;56.20;;;;;;5005816;28;20065;-47
2023/08/11 07:49:01;;;;;;;5.00;2.30;;;21.40;56.20;;;;;;5004987;28;20058;-50
2023/08/11 07:51:28;;;;;;;5.70;2.47;;;21.40;56.20;;;;;;5005345;28;20401;-47
2023/08/11 07:53:55;;;;;;;6.40;2.42;;;21.50;56.20;;;;;;5005659;28;20050;-48
2023/08/11 07:56:24;;;;;;;6.82;2.60;;;21.60;56.10;;;;;;5004870;28;20083;-49
2023/08/11 07:58:52;;;;;;;4.40;2.20;;;21.60;56.10;;;;;;5006191;28;20522;-51
2023/08/11 08:01:20;;;;;;;3.65;2.13;;;21.70;55.80;;;;;;5004574;28;20053;-49
2023/08/11 08:03:48;;;;;;;3.70;2.33;;;21.80;55.90;;;;;;5004839;28;20054;-50
2023/08/11 08:06:16;;;;;;;5.28;2.40;;;21.90;56.10;;;;;;5005184;28;20054;-49
2023/08/11 08:08:43;;;;;;;6.60;2.13;;;21.90;55.90;;;;;;5005933;28;20080;-49
2023/08/11 08:11:10;;;;;;;4.90;1.90;;;22.00;55.70;;;;;;5005791;28;20058;-51
2023/08/11 08:13:38;;;;;;;8.35;2.17;;;22.10;55.70;;;;;;5004167;28;20053;-48
2023/08/11 08:16:05;;;;;;;3.47;2.00;;;22.10;55.90;;;;;;5005111;28;20389;-50
2023/08/11 08:18:33;;;;;;;4.60;2.13;;;22.20;55.90;;;;;;5003553;28;20045;-48
2023/08/11 08:21:02;;;;;;;4.57;2.28;;;22.30;55.90;;;;;;5005803;28;20053;-50
2023/08/11 08:23:30;;;;;;;2.83;1.98;;;22.40;56.00;;;;;;5004075;28;20421;-49
2023/08/11 08:25:59;;;;;;;4.05;2.60;;;22.40;55.80;;;;;;5005604;28;20062;-50
2023/08/11 08:28:27;;;;;;;3.28;2.10;;;22.50;55.70;;;;;;5003090;28;20080;-48
2023/08/11 08:30:55;;;;;;;4.82;2.83;;;22.60;55.80;;;;;;5003045;28;20522;-49
2023/08/11 08:33:22;;;;;;;8.95;2.45;;;22.70;55.80;;;;;;5004279;28;20061;-50
2023/08/11 08:35:49;;;;;;;3.80;2.30;;;22.70;55.60;;;;;;5005621;28;20308;-49
2023/08/11 08:38:18;;;;;;;3.03;2.33;;;22.80;55.70;;;;;;5004151;28;20049;-49
2023/08/11 08:40:45;;;;;;;4.70;2.58;;;22.90;55.80;;;;;;5004560;28;20053;-47
2023/08/11 08:43:13;;;;;;;5.22;2.20;;;22.90;55.70;;;;;;5002981;28;20058;-50
2023/08/11 08:45:44;;;;;;;2.72;2.03;;;23.00;55.70;;;;;;5005366;28;20362;-53
2023/08/11 08:48:17;;;;;;;4.22;2.22;;;23.10;55.70;;;;;;5005206;28;20056;-49
2023/08/11 08:50:44;;;;;;;3.10;2.13;;;23.10;55.50;;;;;;5004040;28;20046;-51
2023/08/11 08:53:12;;;;;;;4.38;2.72;;;23.20;55.60;;;;;;5004512;28;20060;-51
2023/08/11 08:55:41;;;;;;;3.33;2.10;;;23.30;55.60;;;;;;5004788;28;20494;-50
2023/08/11 08:58:11;;;;;;;3.10;2.05;;;23.40;55.50;;;;;;5002448;28;20052;-48
2023/08/11 09:00:38;;;;;;;7.15;2.80;;;23.40;55.40;;;;;;5005085;28;20065;-50
2023/08/11 09:03:06;;;;;;;6.22;2.25;;;23.50;55.40;;;;;;5003621;28;20050;-47
2023/08/11 09:05:34;;;;;;;4.82;2.13;;;23.60;55.30;;;;;;5004114;28;20050;-50
2023/08/11 09:08:01;;;;;;;4.15;2.40;;;23.70;55.10;;;;;;5003869;28;20559;-48
2023/08/11 09:10:29;;;;;;;5.22;2.00;;;23.70;55.10;;;;;;5003778;28;20497;-49
2023/08/11 09:12:59;;;;;;;9.07;2.45;;;23.80;55.20;;;;;;5002774;28;20050;-51
2023/08/11 09:15:26;;;;;;;5.05;2.70;;;23.80;54.90;;;;;;5004085;28;20053;-49
2023/08/11 09:17:53;;;;;;;3.42;2.60;;;23.90;55.10;;;;;;5004040;28;20136;-49
2023/08/11 09:20:23;;;;;;;3.58;2.20;;;24.00;54.40;;;;;;5003861;28;20064;-50
2023/08/11 09:22:50;;;;;;;5.85;2.33;;;24.10;54.70;;;;;;5003177;28;20137;-50
2023/08/11 09:25:18;;;;;;;6.05;2.42;;;24.20;54.40;;;;;;5004944;28;20702;-49
2023/08/11 09:27:50;;;;;;;5.53;2.72;;;24.20;54.20;;;;;;5003476;28;20468;-48
2023/08/11 09:30:19;;;;;;;3.75;2.20;;;24.20;54.10;;;;;;5003559;28;20049;-47
2023/08/11 09:32:49;;;;;;;3.40;2.28;;;24.40;54.10;;;;;;5003325;28;20046;-48
2023/08/11 09:35:23;;;;;;;4.53;2.25;;;24.40;54.10;;;;;;5003674;28;20058;-48
2023/08/11 09:37:53;;;;;;;4.82;2.28;;;24.50;54.10;;;;;;5004749;28;20497;-48
2023/08/11 09:40:21;;;;;;;3.75;2.13;;;24.50;53.90;;;;;;5001971;28;20065;-48
2023/08/11 09:42:48;;;;;;;3.10;2.33;;;24.60;53.90;;;;;;5002197;28;20057;-48
2023/08/11 09:45:16;;;;;;;4.88;2.40;;;24.60;53.70;;;;;;5003989;28;20057;-49
2023/08/11 09:47:45;;;;;;;2.58;1.88;;;24.70;53.90;;;;;;5004093;28;20060;-46
2023/08/11 09:50:13;;;;;;;8.48;2.85;;;24.80;53.50;;;;;;5003182;28;20061;-49
2023/08/11 09:52:40;;;;;;;6.15;2.47;;;24.80;53.30;;;;;;5002848;28;20065;-49
2023/08/11 09:55:10;;;;;;;4.10;2.35;;;24.90;53.30;;;;;;5003048;28;20049;-49
2023/08/11 09:57:40;;;;;;;4.22;2.33;;;24.90;53.10;;;;;;5000868;28;20064;-50
2023/08/11 10:00:11;;;;;;;4.95;2.70;;;25.00;52.90;;;;;;5002222;28;20060;-52
2023/08/11 10:02:44;;;;;;;4.03;2.30;;;25.00;52.40;;;;;;4999510;28;20480;-49
2023/08/11 10:05:14;;;;;;;7.82;2.55;;;25.10;52.30;;;;;;5003224;28;20061;-48
2023/08/11 10:07:44;;;;;;;8.45;2.70;;;25.10;52.20;;;;;;5001751;28;20060;-48
2023/08/11 10:10:14;;;;;;;2.65;2.15;;;25.20;52.10;;;;;;5004341;28;20481;-53
2023/08/11 10:12:46;;;;;;;2.58;2.20;;;25.20;52.30;;;;;;5002059;28;20049;-48
2023/08/11 10:15:16;;;;;;;3.55;2.15;;;25.20;51.30;;;;;;5003985;28;20061;-47
2023/08/11 10:17:44;;;;;;;4.38;2.55;;;25.30;51.80;;;;;;5002239;28;20394;-47
2023/08/11 10:20:13;;;;;;;2.90;2.30;;;25.30;51.30;;;;;;5003429;28;20054;-49
2023/08/11 10:22:43;;;;;;;3.45;2.55;;;25.40;50.40;;;;;;5003639;28;20088;-47
2023/08/11 10:25:10;;;;;;;6.32;2.50;;;25.40;50.30;;;;;;5004182;28;20053;-47
2023/08/11 10:27:41;;;;;;;5.75;2.13;;;25.50;50.20;;;;;;5001655;28;20057;-50
2023/08/11 10:30:11;;;;;;;2.92;2.17;;;25.60;50.40;;;;;;5003030;28;20053;-50
2023/08/11 10:32:39;;;;;;;4.32;2.45;;;25.60;50.80;;;;;;5001382;28;20054;-47
2023/08/11 10:35:08;;;;;;;3.80;2.38;;;25.70;51.10;;;;;;5002121;28;21581;-49
2023/08/11 10:37:36;;;;;;;3.55;2.20;;;25.80;51.00;;;;;;5002861;28;20060;-49
2023/08/11 10:40:06;;;;;;;4.38;2.40;;;25.80;50.60;;;;;;5004342;28;20050;-47
2023/08/11 10:42:37;;;;;;;5.07;2.42;;;25.90;50.00;;;;;;5001860;28;20064;-47
2023/08/11 10:45:11;;;;;;;3.80;2.53;;;26.00;49.80;;;;;;5003320;28;20049;-47
2023/08/11 10:47:39;;;;;;;2.95;2.10;;;26.10;49.80;;;;;;5002546;28;20529;-49
2023/08/11 10:50:09;;;;;;;3.55;2.25;;;26.10;49.80;;;;;;5001948;28;20057;-50
2023/08/11 10:52:37;;;;;;;3.10;2.45;;;26.20;49.50;;;;;;5002405;28;20072;-49
2023/08/11 10:55:05;;;;;;;2.70;2.00;;;26.20;49.50;;;;;;5000745;28;20057;-50
2023/08/11 10:57:35;;;;;;;3.25;2.17;;;26.30;49.80;;;;;;4996155;28;20049;-48
2023/08/11 11:00:03;;;;;;;2.83;2.00;;;26.30;49.70;;;;;;5000927;28;20054;-47
2023/08/11 11:02:32;;;;;;;2.58;2.10;;;26.40;49.80;;;;;;5002784;28;20057;-50
2023/08/11 11:04:59;;;;;;;3.85;2.50;;;26.40;49.80;;;;;;5003020;28;20057;-50
2023/08/11 11:07:26;;;;;;;5.45;2.30;;;26.50;50.10;;;;;;5001500;28;20060;-48
2023/08/11 11:09:55;;;;;;;6.82;2.20;;;26.50;49.70;;;;;;5003051;28;20081;-50
2023/08/11 11:12:22;;;;;;;2.60;2.17;;;26.50;49.50;;;;;;5001338;28;20058;-51
2023/08/11 11:14:49;;;;;;;3.85;2.40;;;26.60;49.50;;;;;;5001990;28;20054;-52
2023/08/11 11:17:17;;;;;;;4.13;2.05;;;26.60;49.20;;;;;;5002466;28;20054;-52
2023/08/11 11:19:45;;;;;;;8.98;2.40;;;26.70;49.30;;;;;;5002589;28;20054;-49
2023/08/11 11:22:14;;;;;;;4.68;2.53;;;26.70;49.20;;;;;;5003195;28;20057;-46
2023/08/11 11:24:42;;;;;;;4.15;2.45;;;26.80;48.70;;;;;;5000340;28;20064;-49
2023/08/11 11:27:11;;;;;;;3.28;2.08;;;26.70;48.90;;;;;;5000930;28;20060;-49
2023/08/11 11:29:38;;;;;;;3.05;2.00;;;26.80;48.60;;;;;;5002034;28;20661;-51
2023/08/11 11:32:07;;;;;;;3.75;2.35;;;26.90;48.30;;;;;;5001408;28;20112;-48
2023/08/11 11:34:36;;;;;;;4.22;2.10;;;26.90;48.10;;;;;;5000986;28;20490;-49
2023/08/11 11:37:04;;;;;;;5.00;2.50;;;26.90;48.10;;;;;;5001979;28;20061;-50
2023/08/11 11:39:32;;;;;;;4.40;2.30;;;27.00;47.60;;;;;;5002385;28;20053;-51
2023/08/11 11:42:06;;;;;;;3.75;2.08;;;27.00;47.90;;;;;;5001277;28;20112;-48
2023/08/11 11:44:36;;;;;;;4.03;2.45;;;27.10;47.90;;;;;;5001014;28;20049;-48
2023/08/11 11:47:05;;;;;;;4.72;2.25;;;27.10;47.60;;;;;;5001373;28;20062;-48
2023/08/11 11:49:32;;;;;;;5.40;2.85;;;27.10;47.50;;;;;;5003153;28;20065;-50
2023/08/11 11:52:00;;;;;;;5.00;3.05;;;27.20;47.10;;;;;;5002999;28;20548;-46
2023/08/11 11:54:31;;;;;;;3.28;2.38;;;27.20;47.50;;;;;;5002802;28;20482;-48
2023/08/11 11:56:58;;;;;;;3.80;2.58;;;27.20;47.50;;;;;;5000810;28;20508;-50
2023/08/11 11:59:28;;;;;;;3.17;2.50;;;27.30;47.50;;;;;;5005399;28;20057;-52
2023/08/11 12:02:00;;;;;;;6.32;2.40;;;27.30;46.90;;;;;;5005291;28;20050;-54
2023/08/11 12:04:28;;;;;;;3.25;2.33;;;27.40;47.00;;;;;;5005742;28;20058;-48
2023/08/11 12:06:55;;;;;;;6.18;2.50;;;27.40;47.00;;;;;;5005784;28;20062;-49
2023/08/11 12:09:22;;;;;;;5.22;2.28;;;27.40;46.80;;;;;;5005596;28;20500;-49
2023/08/11 12:11:49;;;;;;;4.20;2.30;;;27.50;46.70;;;;;;5004676;28;20048;-50
2023/08/11 12:14:17;;;;;;;3.97;2.47;;;27.50;46.70;;;;;;5006725;28;20045;-54
2023/08/11 12:16:45;;;;;;;6.15;2.42;;;27.60;46.50;;;;;;5005381;28;20049;-53
2023/08/11 12:19:14;;;;;;;7.05;2.85;;;27.60;46.60;;;;;;5005610;28;20053;-49
2023/08/11 12:21:43;;;;;;;4.13;2.17;;;27.60;46.20;;;;;;5003833;28;20053;-49
2023/08/11 12:24:14;;;;;;;3.83;2.45;;;27.60;46.40;;;;;;5004927;28;20103;-52
2023/08/11 12:26:41;;;;;;;3.42;2.15;;;27.70;46.40;;;;;;5005330;28;20058;-48
2023/08/11 12:29:08;;;;;;;7.68;2.70;;;27.70;46.70;;;;;;5006306;28;20429;-50
2023/08/11 12:31:36;;;;;;;5.20;2.20;;;27.70;46.20;;;;;;5004465;28;20057;-53
2023/08/11 12:34:03;;;;;;;6.45;2.70;;;27.80;46.30;;;;;;5005530;28;20053;-49
2023/08/11 12:36:32;;;;;;;4.53;2.42;;;27.80;46.70;;;;;;5004275;28;20062;-49
2023/08/11 12:38:59;;;;;;;3.92;2.67;;;27.90;46.50;;;;;;5004739;28;20056;-48
2023/08/11 12:41:26;;;;;;;4.95;1.95;;;27.90;46.40;;;;;;5004853;28;20054;-45
2023/08/11 12:43:53;;;;;;;4.88;2.47;;;27.90;46.60;;;;;;5005747;28;20057;-59
2023/08/11 12:46:21;;;;;;;4.70;2.15;;;28.00;46.80;;;;;;5004476;28;20672;-59
2023/08/11 12:48:48;;;;;;;3.58;2.15;;;28.10;46.30;;;;;;5007041;28;20056;-59
2023/08/11 12:51:15;;;;;;;4.30;2.20;;;28.10;46.20;;;;;;5004282;28;20050;-59
2023/08/11 12:53:44;;;;;;;2.50;2.10;;;28.20;46.40;;;;;;5005135;28;20053;-59